createdAt,value
2022-11-07T00:01:10.655Z,95177.28
2022-11-07T00:03:55.573Z,95175.72
2022-11-07T00:06:38.646Z,95178.66
2022-11-07T00:09:23.240Z,95171.88
2022-11-07T00:12:06.749Z,95180.53
2022-11-07T00:14:49.796Z,95188.31
2022-11-07T00:17:32.903Z,95177.50
2022-11-07T00:20:15.996Z,95189.50
2022-11-07T00:22:58.983Z,95184.88
2022-11-07T00:25:43.593Z,95186.34
2022-11-07T00:28:26.575Z,95187.56
2022-11-07T00:31:11.086Z,95185.97
2022-11-07T00:33:54.481Z,95191.50
2022-11-07T00:36:37.493Z,95183.13
2022-11-07T00:39:20.492Z,95178.94
2022-11-07T00:42:04.961Z,95178.94
2022-11-07T00:44:48.000Z,95185.03
2022-11-07T00:47:31.033Z,95175.72
2022-11-07T00:50:14.081Z,95172.59
2022-11-07T00:52:58.754Z,95170.00
2022-11-07T00:55:41.815Z,95171.59
2022-11-07T00:58:26.216Z,95173.00
2022-11-07T01:01:10.688Z,95174.78
2022-11-07T01:04:11.190Z,95176.44
2022-11-07T01:06:54.321Z,95167.06
2022-11-07T01:09:37.346Z,95175.63
2022-11-07T01:12:20.418Z,95173.59
2022-11-07T01:15:05.372Z,95168.59
2022-11-07T01:17:48.563Z,95167.69
2022-11-07T01:20:31.588Z,95169.91
2022-11-07T01:23:15.067Z,95163.72
2022-11-07T01:25:58.243Z,95156.94
2022-11-07T01:28:41.317Z,95154.84
2022-11-07T01:31:25.741Z,95152.03
2022-11-07T01:34:08.753Z,95148.06
2022-11-07T01:36:51.771Z,95150.22
2022-11-07T01:39:34.953Z,95144.03
2022-11-07T01:42:17.991Z,95145.31
2022-11-07T01:45:01.614Z,95152.66
2022-11-07T01:47:46.459Z,95146.66
2022-11-07T01:50:30.059Z,95154.53
2022-11-07T01:53:13.360Z,95153.75
2022-11-07T01:55:56.591Z,95142.22
2022-11-07T01:58:39.636Z,95143.81
2022-11-07T02:01:23.424Z,95145.06
2022-11-07T02:04:08.176Z,95144.22
2022-11-07T02:06:56.682Z,95139.81
2022-11-07T02:09:39.672Z,95143.88
2022-11-07T02:12:25.345Z,95141.13
2022-11-07T02:15:10.786Z,95151.41
2022-11-07T02:17:54.455Z,95149.91
2022-11-07T02:20:38.891Z,95171.47
2022-11-07T02:23:28.128Z,95159.31
2022-11-07T02:26:13.790Z,95157.53
2022-11-07T02:28:58.695Z,95150.78
2022-11-07T02:31:41.677Z,95162.34
2022-11-07T02:34:24.707Z,95158.75
2022-11-07T02:37:14.637Z,95164.53
2022-11-07T02:39:58.520Z,95141.28
2022-11-07T02:42:46.010Z,95160.78
2022-11-07T02:45:32.725Z,95158.44
2022-11-07T02:48:15.830Z,95158.03
2022-11-07T02:50:59.276Z,95149.25
2022-11-07T02:53:42.388Z,95156.03
2022-11-07T02:56:26.064Z,95161.25
2022-11-07T02:59:10.465Z,95163.84
2022-11-07T03:01:53.627Z,95162.84
2022-11-07T03:04:36.711Z,95165.25
2022-11-07T03:07:19.811Z,95157.66
2022-11-07T03:10:03.492Z,95160.84
2022-11-07T03:12:46.602Z,95168.81
2022-11-07T03:15:31.324Z,95163.97
2022-11-07T03:18:14.540Z,95169.59
2022-11-07T03:20:57.589Z,95165.81
2022-11-07T03:23:40.819Z,95166.84
2022-11-07T03:26:23.880Z,95166.28
2022-11-07T03:29:06.895Z,95175.00
2022-11-07T03:31:51.338Z,95163.28
2022-11-07T03:34:34.359Z,95163.34
2022-11-07T03:37:17.350Z,95172.50
2022-11-07T03:40:00.363Z,95178.88
2022-11-07T03:42:45.132Z,95180.91
2022-11-07T03:45:28.283Z,95187.47
2022-11-07T03:48:12.719Z,95187.47
2022-11-07T03:50:55.825Z,95198.84
2022-11-07T03:53:38.904Z,95192.84
2022-11-07T03:56:21.907Z,95202.84
2022-11-07T03:59:04.918Z,95199.66
2022-11-07T04:01:48.031Z,95206.00
2022-11-07T04:04:32.466Z,95208.38
2022-11-07T04:07:15.494Z,95212.78
2022-11-07T04:09:58.527Z,95217.56
2022-11-07T04:12:58.800Z,95216.16
2022-11-07T04:16:01.136Z,95227.50
2022-11-07T04:18:44.104Z,95236.69
2022-11-07T04:21:28.535Z,95231.91
2022-11-07T04:24:11.517Z,95232.09
2022-11-07T04:27:11.924Z,95237.06
2022-11-07T04:29:56.090Z,95236.66
2022-11-07T04:32:39.048Z,95232.63
2022-11-07T04:35:23.653Z,95226.22
2022-11-07T04:38:08.090Z,95222.78
2022-11-07T04:40:54.802Z,95221.44
2022-11-07T04:43:37.788Z,95228.16
2022-11-07T04:46:23.190Z,95230.34
2022-11-07T04:49:06.189Z,95236.47
2022-11-07T04:51:50.276Z,95233.88
2022-11-07T04:54:34.687Z,95235.91
2022-11-07T04:57:17.785Z,95238.06
2022-11-07T05:00:00.891Z,95242.41
2022-11-07T05:02:44.004Z,95239.22
2022-11-07T05:05:27.170Z,95236.94
2022-11-07T05:08:10.256Z,95241.09
2022-11-07T05:10:54.633Z,95244.66
2022-11-07T05:13:37.645Z,95246.41
2022-11-07T05:16:20.750Z,95251.00
2022-11-07T05:19:03.849Z,95254.63
2022-11-07T05:21:47.149Z,95251.19
2022-11-07T05:24:29.105Z,95251.19
2022-11-07T05:27:19.857Z,95254.28
2022-11-07T05:30:02.885Z,95255.25
2022-11-07T05:32:45.844Z,95255.06
2022-11-07T05:35:28.859Z,95261.00
2022-11-07T05:38:12.696Z,95261.34
2022-11-07T05:40:55.699Z,95270.53
2022-11-07T05:43:40.757Z,95277.91
2022-11-07T05:46:23.731Z,95284.31
2022-11-07T05:49:06.717Z,95281.75
2022-11-07T05:51:49.777Z,95280.63
2022-11-07T05:54:33.218Z,95280.34
2022-11-07T05:57:16.263Z,95292.13
2022-11-07T06:00:00.655Z,95290.06
2022-11-07T06:02:43.840Z,95289.47
2022-11-07T06:05:28.779Z,95295.72
2022-11-07T06:08:13.935Z,95301.31
2022-11-07T06:10:56.953Z,95298.75
2022-11-07T06:13:40.053Z,95307.44
2022-11-07T06:16:24.403Z,95306.88
2022-11-07T06:19:07.395Z,95312.22
2022-11-07T06:21:50.391Z,95313.72
2022-11-07T06:24:33.425Z,95318.50
2022-11-07T06:27:16.417Z,95314.44
2022-11-07T06:29:59.416Z,95320.06
2022-11-07T06:32:45.896Z,95322.78
2022-11-07T06:35:29.051Z,95333.09
2022-11-07T06:38:14.772Z,95320.19
2022-11-07T06:40:57.760Z,95321.47
2022-11-07T06:43:40.969Z,95329.78
2022-11-07T06:46:25.260Z,95326.41
2022-11-07T06:49:09.622Z,95330.31
2022-11-07T06:51:52.572Z,95331.03
2022-11-07T06:54:35.598Z,95336.00
2022-11-07T06:57:18.579Z,95336.03
2022-11-07T07:00:01.602Z,95341.28
2022-11-07T07:02:57.813Z,95334.53
2022-11-07T07:05:43.497Z,95343.44
2022-11-07T07:08:26.436Z,95345.63
2022-11-07T07:11:12.490Z,95337.09
2022-11-07T07:14:01.989Z,95346.94
2022-11-07T07:16:45.816Z,95339.13
2022-11-07T07:19:28.824Z,95355.75
2022-11-07T07:22:14.872Z,95354.72
2022-11-07T07:24:57.852Z,95354.34
2022-11-07T07:27:40.843Z,95354.63
2022-11-07T07:30:23.886Z,95357.47
2022-11-07T07:33:06.959Z,95358.34
2022-11-07T07:35:50.176Z,95351.50
2022-11-07T07:38:34.698Z,95356.69
2022-11-07T07:41:17.935Z,95361.06
2022-11-07T07:44:00.947Z,95369.91
2022-11-07T07:46:43.906Z,95363.22
2022-11-07T07:49:26.872Z,95359.16
2022-11-07T07:52:09.918Z,95358.78
2022-11-07T07:54:54.702Z,95358.38
2022-11-07T07:57:42.309Z,95366.78
2022-11-07T08:00:25.312Z,95365.47
2022-11-07T08:03:10.176Z,95363.81
2022-11-07T08:05:55.273Z,95371.50
2022-11-07T08:08:38.579Z,95369.22
2022-11-07T08:11:23.877Z,95371.22
2022-11-07T08:14:07.097Z,95370.09
2022-11-07T08:16:50.112Z,95359.72
2022-11-07T08:19:33.159Z,95357.00
2022-11-07T08:22:16.159Z,95357.84
2022-11-07T08:24:59.235Z,95357.31
2022-11-07T08:27:43.668Z,95361.28
2022-11-07T08:30:28.319Z,95357.66
2022-11-07T08:33:11.410Z,95369.75
2022-11-07T08:35:55.421Z,95364.44
2022-11-07T08:38:38.638Z,95362.16
2022-11-07T08:41:22.576Z,95368.41
2022-11-07T08:44:08.343Z,95364.66
2022-11-07T08:46:51.346Z,95372.72
2022-11-07T08:49:34.489Z,95369.63
2022-11-07T08:52:17.527Z,95365.81
2022-11-07T08:55:00.542Z,95369.72
2022-11-07T08:57:43.592Z,95356.09
2022-11-07T09:00:28.606Z,95368.97
2022-11-07T09:06:17.261Z,95362.13
2022-11-07T09:09:00.513Z,95368.78
2022-11-07T09:11:43.558Z,95366.06
2022-11-07T09:14:27.643Z,95368.00
2022-11-07T09:17:12.109Z,95367.88
2022-11-07T09:19:55.222Z,95374.88
2022-11-07T09:22:38.348Z,95373.31
2022-11-07T09:25:21.409Z,95365.81
2022-11-07T09:28:05.076Z,95363.03
2022-11-07T09:30:48.167Z,95358.09
2022-11-07T09:33:33.718Z,95358.63
2022-11-07T09:36:16.780Z,95359.69
2022-11-07T09:39:01.187Z,95357.09
2022-11-07T09:41:57.785Z,95348.44
2022-11-07T16:26:45.851Z,95280.75
2022-11-07T16:29:28.920Z,95291.00
2022-11-07T16:32:17.885Z,95291.44
2022-11-07T16:35:01.631Z,95298.56
2022-11-07T16:37:44.802Z,95301.19
2022-11-07T16:40:27.876Z,95306.28
2022-11-07T16:43:12.721Z,95301.63
2022-11-07T16:45:57.790Z,95299.47
2022-11-07T16:48:41.856Z,95301.94
2022-11-07T16:51:24.954Z,95308.81
2022-11-07T16:54:08.042Z,95315.09
2022-11-07T16:56:53.027Z,95308.09
2022-11-07T16:59:37.540Z,95319.59
2022-11-07T17:02:23.045Z,95312.25
2022-11-07T17:05:06.961Z,95318.16
2022-11-07T17:07:50.575Z,95315.56
2022-11-07T17:10:33.644Z,95319.19
2022-11-07T17:13:16.974Z,95326.06
2022-11-07T17:16:01.572Z,95316.50
2022-11-07T17:18:47.027Z,95316.50
2022-11-07T17:21:32.042Z,95325.94
2022-11-07T17:24:15.315Z,95319.00
2022-11-07T17:26:58.820Z,95316.06
2022-11-07T17:29:41.925Z,95317.69
2022-11-07T17:32:26.429Z,95318.97
2022-11-07T17:35:30.988Z,95304.81
2022-11-07T17:38:17.676Z,95306.84
2022-11-07T17:41:17.336Z,95302.13
2022-11-07T17:44:01.255Z,95299.03
2022-11-07T17:46:47.340Z,95293.97
2022-11-07T17:49:31.864Z,95303.78
2022-11-07T17:52:14.911Z,95310.00
2022-11-07T17:54:58.012Z,95315.25
2022-11-07T17:57:42.514Z,95314.66
2022-11-07T18:00:27.561Z,95320.03
2022-11-07T18:03:10.745Z,95323.53
2022-11-07T18:05:55.314Z,95319.59
2022-11-07T18:08:51.847Z,95333.56
2022-11-07T18:11:36.667Z,95330.16
2022-11-07T18:14:19.995Z,95331.97
2022-11-07T18:17:03.557Z,95333.16
2022-11-07T18:19:47.161Z,95333.31
2022-11-07T18:22:31.863Z,95330.31
2022-11-07T18:25:14.962Z,95328.38
2022-11-07T18:27:58.139Z,95318.22
2022-11-07T18:30:41.723Z,95325.78
2022-11-07T18:33:24.714Z,95326.56
2022-11-07T18:36:10.295Z,95326.75
2022-11-07T18:38:55.202Z,95324.44
2022-11-07T18:41:38.377Z,95326.38
2022-11-07T18:44:21.554Z,95324.38
2022-11-07T18:47:04.613Z,95314.25
2022-11-07T18:49:48.911Z,95313.66
2022-11-07T18:52:34.814Z,95317.78
2022-11-07T18:55:21.809Z,95309.81
2022-11-07T18:58:06.989Z,95309.97
2022-11-07T19:00:50.075Z,95313.00
2022-11-07T19:03:33.135Z,95318.72
2022-11-07T19:06:19.845Z,95325.44
2022-11-07T19:09:03.477Z,95331.84
2022-11-07T19:11:48.299Z,95329.47
2022-11-07T19:14:32.104Z,95343.00
2022-11-07T19:17:15.562Z,95343.19
2022-11-07T19:19:58.719Z,95342.19
2022-11-07T19:22:41.833Z,95340.53
2022-11-07T19:25:24.982Z,95353.88
2022-11-07T19:28:09.702Z,95358.47
2022-11-07T19:30:52.821Z,95354.06
2022-11-07T19:33:38.039Z,95358.41
2022-11-07T19:36:23.646Z,95357.03
2022-11-07T19:39:06.792Z,95361.00
2022-11-07T19:41:49.968Z,95370.81
2022-11-07T19:44:36.469Z,95384.53
2022-11-07T19:47:19.649Z,95383.53
2022-11-07T19:50:02.707Z,95386.13
2022-11-07T19:52:46.167Z,95379.53
2022-11-07T19:55:29.208Z,95374.91
2022-11-07T19:58:12.235Z,95375.09
2022-11-07T20:00:56.718Z,95376.88
2022-11-07T20:03:40.425Z,95384.84
2022-11-07T20:06:26.195Z,95380.63
2022-11-07T20:09:11.120Z,95373.44
2022-11-07T20:11:54.109Z,95376.41
2022-11-07T20:14:38.206Z,95370.22
2022-11-07T20:17:22.642Z,95373.16
2022-11-07T20:20:10.864Z,95366.59
2022-11-07T20:22:56.385Z,95372.63
2022-11-07T20:25:42.399Z,95366.28
2022-11-07T20:28:25.537Z,95372.03
2022-11-07T20:31:09.910Z,95375.09
2022-11-07T20:33:55.403Z,95367.19
2022-11-07T20:36:38.444Z,95374.22
2022-11-07T20:39:21.437Z,95370.78
2022-11-07T20:42:04.511Z,95375.94
2022-11-07T20:44:48.115Z,95377.91
2022-11-07T20:47:31.100Z,95385.38
2022-11-07T20:50:15.597Z,95379.69
2022-11-07T20:53:00.048Z,95378.50
2022-11-07T20:55:44.568Z,95383.97
2022-11-07T20:58:27.575Z,95386.84
2022-11-07T21:01:15.148Z,95392.44
2022-11-07T21:03:58.244Z,95385.44
2022-11-07T21:06:42.815Z,95386.03
2022-11-07T21:09:27.005Z,95393.38
2022-11-07T21:12:10.243Z,95394.38
2022-11-07T21:14:54.686Z,95392.38
2022-11-07T21:17:37.766Z,95392.56
2022-11-07T21:20:20.740Z,95404.91
2022-11-07T21:23:05.420Z,95392.09
2022-11-07T21:25:49.219Z,95388.16
2022-11-07T21:28:32.345Z,95389.91
2022-11-07T21:31:18.176Z,95387.66
2022-11-07T21:34:01.231Z,95389.44
2022-11-07T21:36:44.310Z,95406.09
2022-11-07T21:39:28.822Z,95399.69
2022-11-07T21:42:12.833Z,95392.16
2022-11-07T21:44:55.830Z,95396.16
2022-11-07T21:47:43.279Z,95394.56
2022-11-07T21:50:44.315Z,95387.56
2022-11-07T21:53:28.163Z,95398.16
2022-11-07T21:56:16.274Z,95394.22
2022-11-07T21:59:01.272Z,95396.63
2022-11-07T22:01:44.381Z,95404.22
2022-11-07T22:04:27.620Z,95403.16
2022-11-07T22:07:10.617Z,95404.16
2022-11-07T22:09:53.603Z,95406.97
2022-11-07T22:12:38.012Z,95410.22
2022-11-07T22:15:21.040Z,95411.81
2022-11-07T22:18:04.070Z,95414.56
2022-11-07T22:20:47.130Z,95411.97
2022-11-07T22:23:32.863Z,95414.56
2022-11-07T22:26:18.004Z,95418.56
2022-11-07T22:29:02.376Z,95416.22
2022-11-07T22:31:45.367Z,95413.41
2022-11-07T22:34:28.483Z,95407.22
2022-11-07T22:37:11.456Z,95413.56
2022-11-07T22:39:54.533Z,95418.31
2022-11-07T22:42:37.500Z,95417.25
2022-11-07T22:45:21.917Z,95421.25
2022-11-07T22:48:05.319Z,95422.44
2022-11-07T22:50:48.574Z,95413.66
2022-11-07T22:53:31.739Z,95420.44
2022-11-07T22:56:16.826Z,95416.91
2022-11-07T22:59:00.319Z,95414.88
2022-11-07T23:01:44.914Z,95419.66
2022-11-07T23:04:32.640Z,95415.03
2022-11-07T23:07:16.179Z,95416.78
2022-11-07T23:10:00.897Z,95415.19
2022-11-07T23:12:44.166Z,95415.25
2022-11-07T23:15:27.322Z,95417.91
2022-11-07T23:18:11.751Z,95419.03
2022-11-07T23:21:11.816Z,95409.69
2022-11-07T23:23:55.894Z,95416.84
2022-11-07T23:26:39.183Z,95409.69
2022-11-07T23:29:24.086Z,95411.69
2022-11-07T23:32:07.180Z,95413.91
2022-11-07T23:34:54.419Z,95413.50
2022-11-07T23:37:37.469Z,95407.56
2022-11-07T23:40:20.464Z,95419.06
2022-11-07T23:43:03.617Z,95413.47
2022-11-07T23:46:03.966Z,95411.88
2022-11-07T23:49:04.896Z,95414.06
2022-11-07T23:51:49.481Z,95413.47
2022-11-07T23:54:50.038Z,95412.81
2022-11-07T23:57:55.935Z,95404.19
